createdAt,value
2019-02-10T00:01:15.417Z,1.00
2019-02-10T00:03:44.691Z,0.70
2019-02-10T00:06:13.872Z,0.60
2019-02-10T00:08:42.957Z,0.90
2019-02-10T00:11:11.621Z,0.60
2019-02-10T00:13:45.459Z,1.00
2019-02-10T00:16:16.254Z,1.00
2019-02-10T00:19:00.471Z,0.60
2019-02-10T00:21:29.894Z,0.80
2019-02-10T00:23:59.739Z,0.80
2019-02-10T00:26:29.105Z,0.60
2019-02-10T00:28:58.419Z,0.80
2019-02-10T00:31:28.071Z,0.60
2019-02-10T00:33:58.407Z,0.40
2019-02-10T00:36:32.869Z,0.50
2019-02-10T00:38:58.549Z,0.20
2019-02-10T00:41:27.781Z,0.60
2019-02-10T00:43:56.967Z,0.40
2019-02-10T00:46:27.228Z,0.30
2019-02-10T00:48:59.070Z,0.50
2019-02-10T00:51:31.400Z,0.50
2019-02-10T00:54:01.720Z,0.20
2019-02-10T00:59:23.395Z,0.20
2019-02-10T01:01:56.209Z,0.40
2019-02-10T01:04:33.879Z,0.00
2019-02-10T01:07:14.889Z,0.10
2019-02-10T01:09:44.883Z,0.00
2019-02-10T01:12:14.991Z,-0.10
2019-02-10T01:14:44.968Z,0.20
2019-02-10T01:17:15.199Z,0.20
2019-02-10T01:19:46.831Z,0.00
2019-02-10T01:22:16.040Z,-0.30
2019-02-10T01:24:45.988Z,0.00
2019-02-10T01:27:17.606Z,-0.30
2019-02-10T01:29:49.178Z,-0.50
2019-02-10T01:32:18.706Z,-0.50
2019-02-10T01:34:52.492Z,-0.50
2019-02-10T01:37:21.985Z,-0.50
2019-02-10T01:39:50.801Z,-0.50
2019-02-10T01:42:20.279Z,-0.80
2019-02-10T01:44:50.675Z,-0.40
2019-02-10T01:47:21.854Z,-0.50
2019-02-10T01:49:51.404Z,-0.70
2019-02-10T01:52:23.270Z,-0.70
2019-02-10T01:54:53.601Z,-0.80
2019-02-10T01:57:23.285Z,-0.80
2019-02-10T01:59:53.709Z,-0.80
2019-02-10T02:02:24.212Z,-0.80
2019-02-10T02:04:53.044Z,-0.80
2019-02-10T02:07:22.098Z,-0.80
2019-02-10T02:09:53.129Z,-1.00
2019-02-10T02:12:21.845Z,-0.70
2019-02-10T02:14:50.977Z,-0.80
2019-02-10T02:17:23.305Z,-1.00
2019-02-10T02:19:52.399Z,-1.00
2019-02-10T02:22:25.727Z,-1.00
2019-02-10T02:24:54.500Z,-1.00
2019-02-10T02:27:23.271Z,-1.00
2019-02-10T02:29:54.387Z,-1.00
2019-02-10T02:32:28.620Z,-1.00
2019-02-10T02:34:58.283Z,-1.10
2019-02-10T02:37:28.700Z,-1.00
2019-02-10T02:39:57.830Z,-1.00
2019-02-10T02:42:29.279Z,-1.00
2019-02-10T02:44:58.199Z,-1.00
2019-02-10T02:47:28.027Z,-1.00
2019-02-10T02:49:59.124Z,-1.00
2019-02-10T02:52:30.795Z,-1.00
2019-02-10T02:55:03.837Z,-1.00
2019-02-10T02:57:32.964Z,-1.00
2019-02-10T03:00:01.713Z,-0.70
2019-02-10T03:02:30.530Z,-0.80
2019-02-10T03:05:00.332Z,-1.00
2019-02-10T03:07:29.049Z,-1.00
2019-02-10T03:09:58.665Z,-1.00
2019-02-10T03:12:27.322Z,-0.80
2019-02-10T03:14:56.603Z,-0.80
2019-02-10T03:17:26.256Z,-0.80
2019-02-10T03:19:54.985Z,-0.80
2019-02-10T03:22:24.526Z,-0.80
2019-02-10T03:24:54.025Z,-0.50
2019-02-10T03:27:23.193Z,-0.80
2019-02-10T03:29:53.392Z,-0.80
2019-02-10T03:32:22.576Z,-0.80
2019-02-10T03:34:53.062Z,-0.60
2019-02-10T03:37:27.353Z,-0.80
2019-02-10T03:39:53.158Z,-0.80
2019-02-10T03:42:23.688Z,-0.80
2019-02-10T03:44:53.092Z,-0.80
2019-02-10T03:47:22.683Z,-0.80
2019-02-10T03:49:52.131Z,-0.60
2019-02-10T03:52:21.404Z,-0.80
2019-02-10T03:54:51.016Z,-0.80
2019-02-10T03:57:20.303Z,-0.80
2019-02-10T03:59:49.543Z,-0.50
2019-02-10T04:02:21.150Z,-0.80
2019-02-10T04:04:50.434Z,-0.80
2019-02-10T04:07:19.963Z,-0.80
2019-02-10T04:09:48.977Z,-0.80
2019-02-10T04:12:18.456Z,-0.60
2019-02-10T04:14:47.546Z,-0.60
2019-02-10T04:17:17.247Z,-0.50
2019-02-10T04:19:47.604Z,-0.70
2019-02-10T04:22:17.091Z,-0.70
2019-02-10T04:24:47.294Z,-0.60
2019-02-10T04:27:16.736Z,-0.80
2019-02-10T04:29:46.210Z,-0.70
2019-02-10T04:32:15.964Z,-0.70
2019-02-10T04:34:45.463Z,-0.70
2019-02-10T04:37:14.993Z,-0.70
2019-02-10T04:39:43.843Z,-0.70
2019-02-10T04:42:13.131Z,-0.70
2019-02-10T04:44:42.788Z,-0.80
2019-02-10T04:47:11.742Z,-0.80
2019-02-10T04:49:41.089Z,-0.80
2019-02-10T04:52:10.433Z,-0.70
2019-02-10T04:54:39.224Z,-0.60
2019-02-10T04:57:08.087Z,-0.50
2019-02-10T04:59:36.984Z,-0.70
2019-02-10T05:02:06.221Z,-0.70
2019-02-10T05:04:35.092Z,-0.80
2019-02-10T05:07:03.900Z,-0.80
2019-02-10T05:09:33.160Z,-0.80
2019-02-10T05:12:02.285Z,-0.80
2019-02-10T05:14:31.081Z,-0.80
2019-02-10T05:16:59.780Z,-0.70
2019-02-10T05:19:28.589Z,-0.60
2019-02-10T05:21:58.259Z,-0.80
2019-02-10T05:24:27.839Z,-0.80
2019-02-10T05:26:57.347Z,-0.80
2019-02-10T05:29:26.146Z,-0.60
2019-02-10T05:31:54.895Z,-0.70
2019-02-10T05:34:24.509Z,-0.60
2019-02-10T05:36:53.257Z,-0.60
2019-02-10T05:39:23.348Z,-0.70
2019-02-10T05:41:52.898Z,-0.80
2019-02-10T05:44:22.202Z,-0.80
2019-02-10T05:46:51.460Z,-0.80
2019-02-10T05:49:21.164Z,-0.70
2019-02-10T05:51:50.271Z,-0.60
2019-02-10T05:54:19.381Z,-0.80
2019-02-10T05:56:48.878Z,-0.70
2019-02-10T05:59:18.276Z,-0.60
2019-02-10T06:02:07.596Z,-0.70
2019-02-10T06:04:40.498Z,-0.70
2019-02-10T06:07:16.788Z,-0.60
2019-02-10T06:09:46.065Z,-1.00
2019-02-10T06:12:14.977Z,-0.80
2019-02-10T06:14:43.645Z,-1.00
2019-02-10T06:17:12.602Z,-0.90
2019-02-10T06:19:41.752Z,-0.60
2019-02-10T06:22:10.661Z,-0.80
2019-02-10T06:24:40.153Z,-0.80
2019-02-10T06:27:10.243Z,-0.90
2019-02-10T06:29:39.685Z,-1.00
2019-02-10T06:32:08.987Z,-0.80
2019-02-10T06:34:38.229Z,-0.80
2019-02-10T06:37:07.588Z,-0.80
2019-02-10T06:39:36.725Z,-0.60
2019-02-10T06:42:05.984Z,-0.90
2019-02-10T06:44:35.278Z,-0.70
2019-02-10T06:47:04.915Z,-0.60
2019-02-10T06:49:33.623Z,-0.70
2019-02-10T06:52:05.280Z,-0.70
2019-02-10T06:54:33.928Z,-0.60
2019-02-10T06:57:03.139Z,-1.00
2019-02-10T06:59:36.904Z,-0.90
2019-02-10T07:02:10.339Z,-0.70
2019-02-10T07:04:40.858Z,-0.60
2019-02-10T07:07:10.147Z,-1.00
2019-02-10T07:09:39.689Z,-0.50
2019-02-10T07:12:45.493Z,-0.80
2019-02-10T07:15:46.317Z,-1.00
2019-02-10T07:18:41.049Z,-1.00
2019-02-10T07:21:10.345Z,-1.00
2019-02-10T07:24:00.882Z,-1.00
2019-02-10T07:26:37.982Z,-1.00
2019-02-10T07:29:09.048Z,-0.90
2019-02-10T07:31:37.708Z,-0.80
2019-02-10T07:34:09.546Z,-1.00
2019-02-10T07:37:02.422Z,-1.10
2019-02-10T07:39:50.389Z,-0.90
2019-02-10T07:42:37.204Z,-0.80
2019-02-10T07:45:21.218Z,-0.90
2019-02-10T07:48:05.339Z,-0.80
2019-02-10T07:50:52.375Z,-0.90
2019-02-10T07:53:27.329Z,-1.10
2019-02-10T07:56:14.741Z,-1.10
2019-02-10T07:59:05.038Z,-0.90
2019-02-10T08:01:39.935Z,-1.00
2019-02-10T08:04:12.825Z,-1.00
2019-02-10T08:06:47.862Z,-1.00
2019-02-10T08:09:28.964Z,-1.10
2019-02-10T08:12:00.853Z,-0.80
2019-02-10T08:14:47.524Z,-1.00
2019-02-10T08:17:24.958Z,-1.00
2019-02-10T08:20:15.457Z,-1.00
2019-02-10T08:23:03.607Z,-1.00
2019-02-10T08:25:39.077Z,-1.00
2019-02-10T08:28:30.613Z,-1.00
2019-02-10T08:31:14.528Z,-0.90
2019-02-10T08:33:52.760Z,-0.60
2019-02-10T08:36:28.135Z,-1.00
2019-02-10T08:39:09.307Z,-1.00
2019-02-10T08:41:53.648Z,-1.10
2019-02-10T08:44:34.880Z,-1.00
2019-02-10T08:47:19.164Z,-1.10
2019-02-10T08:49:57.994Z,-0.80
2019-02-10T08:52:31.613Z,-0.90
2019-02-10T08:55:02.416Z,-0.80
2019-02-10T08:57:31.248Z,-1.00
2019-02-10T09:00:00.730Z,-1.00
2019-02-10T09:02:29.358Z,-1.00
2019-02-10T09:04:58.622Z,-1.00
2019-02-10T09:07:28.154Z,-1.10
2019-02-10T09:09:57.607Z,-1.00
2019-02-10T09:12:26.722Z,-1.20
2019-02-10T09:14:56.234Z,-1.10
2019-02-10T09:17:25.416Z,-0.90
2019-02-10T09:19:54.622Z,-1.20
2019-02-10T09:22:24.222Z,-1.20
2019-02-10T09:24:53.660Z,-1.00
2019-02-10T09:27:23.157Z,-1.20
2019-02-10T09:29:52.682Z,-1.20
2019-02-10T09:32:21.961Z,-1.30
2019-02-10T09:34:50.989Z,-1.20
2019-02-10T09:37:22.723Z,-1.30
2019-02-10T09:39:51.954Z,-1.20
2019-02-10T09:42:21.235Z,-1.30
2019-02-10T09:44:50.441Z,-1.10
2019-02-10T09:47:19.648Z,-1.20
2019-02-10T09:49:48.885Z,-1.30
2019-02-10T09:52:18.519Z,-1.20
2019-02-10T09:54:47.887Z,-1.20
2019-02-10T09:57:16.834Z,-1.50
2019-02-10T09:59:46.212Z,-1.10
2019-02-10T10:02:16.395Z,-1.10
2019-02-10T10:04:46.860Z,-1.30
2019-02-10T10:07:15.940Z,-1.10
2019-02-10T10:09:45.098Z,-1.50
2019-02-10T10:12:14.259Z,-1.10
2019-02-10T10:14:43.407Z,-1.30
2019-02-10T10:17:12.826Z,-1.20
2019-02-10T10:19:42.118Z,-1.40
2019-02-10T10:22:11.437Z,-1.40
2019-02-10T10:24:40.800Z,-1.50
2019-02-10T10:27:10.169Z,-1.30
2019-02-10T10:29:39.407Z,-1.30
2019-02-10T10:32:08.021Z,-1.20
2019-02-10T10:34:36.564Z,-1.40
2019-02-10T10:37:05.896Z,-1.60
2019-02-10T10:39:35.015Z,-1.70
2019-02-10T10:42:04.584Z,-1.70
2019-02-10T10:44:33.983Z,-1.70
2019-02-10T10:47:03.188Z,-1.80
2019-02-10T10:49:32.392Z,-1.60
2019-02-10T10:52:01.975Z,-1.70
2019-02-10T10:54:31.484Z,-2.00
2019-02-10T10:57:00.920Z,-1.90
2019-02-10T10:59:30.318Z,-1.60
2019-02-10T11:01:59.657Z,-1.80
2019-02-10T11:04:28.959Z,-1.80
2019-02-10T11:06:58.213Z,-1.80
2019-02-10T11:09:30.536Z,-1.80
2019-02-10T11:11:57.172Z,-1.90
2019-02-10T11:14:26.042Z,-1.90
2019-02-10T11:16:54.774Z,-2.00
2019-02-10T11:19:23.579Z,-1.80
2019-02-10T11:21:52.849Z,-1.80
2019-02-10T11:24:28.566Z,-1.80
2019-02-10T11:26:53.069Z,-1.80
2019-02-10T11:29:22.399Z,-1.80
2019-02-10T11:31:51.632Z,-1.80
2019-02-10T11:34:21.793Z,-1.80
2019-02-10T11:36:51.243Z,-1.80
2019-02-10T11:39:20.393Z,-1.80
2019-02-10T11:41:49.599Z,-1.80
2019-02-10T11:44:19.471Z,-1.80
2019-02-10T11:46:48.798Z,-1.80
2019-02-10T11:49:17.885Z,-1.80
2019-02-10T11:51:47.014Z,-1.80
2019-02-10T11:54:16.244Z,-1.80
2019-02-10T11:56:45.577Z,-1.80
2019-02-10T11:59:14.935Z,-1.70
2019-02-10T12:01:44.349Z,-1.90
2019-02-10T12:04:13.605Z,-1.90
2019-02-10T12:06:43.055Z,-2.00
2019-02-10T12:09:12.120Z,-1.60
2019-02-10T12:11:41.936Z,-1.60
2019-02-10T12:14:11.019Z,-1.60
2019-02-10T12:16:40.603Z,-1.60
2019-02-10T12:19:09.802Z,-1.60
2019-02-10T12:21:39.965Z,-1.60
2019-02-10T12:24:10.280Z,-1.60
2019-02-10T12:26:39.760Z,-1.60
2019-02-10T12:29:09.124Z,-1.60
2019-02-10T12:31:38.435Z,-1.60
2019-02-10T12:34:07.822Z,-1.70
2019-02-10T12:36:37.157Z,-1.70
2019-02-10T12:39:06.835Z,-1.70
2019-02-10T12:41:36.118Z,-1.50
2019-02-10T12:44:04.920Z,-1.50
2019-02-10T12:46:33.576Z,-1.50
2019-02-10T12:49:02.807Z,-1.70
2019-02-10T12:51:32.266Z,-1.60
2019-02-10T12:54:01.780Z,-1.60
2019-02-10T12:56:31.152Z,-1.60
2019-02-10T12:59:00.223Z,-1.70
2019-02-10T13:01:29.635Z,-1.80
2019-02-10T13:03:58.939Z,-1.80
2019-02-10T13:06:28.377Z,-1.60
2019-02-10T13:08:57.815Z,-1.60
2019-02-10T13:11:26.905Z,-1.70
2019-02-10T13:13:56.236Z,-1.70
2019-02-10T13:16:25.503Z,-1.70
2019-02-10T13:18:54.776Z,-1.60
2019-02-10T13:21:24.224Z,-1.60
2019-02-10T13:23:53.052Z,-1.60
2019-02-10T13:26:21.927Z,-1.60
2019-02-10T13:28:50.623Z,-1.60
2019-02-10T13:31:19.247Z,-1.50
2019-02-10T13:33:48.293Z,-1.70
2019-02-10T13:36:18.696Z,-1.90
2019-02-10T13:38:48.040Z,-2.00
2019-02-10T13:41:17.275Z,-1.80
2019-02-10T13:43:46.456Z,-1.80
2019-02-10T13:46:15.480Z,-1.80
2019-02-10T13:48:44.767Z,-1.80
2019-02-10T13:51:15.512Z,-1.90
2019-02-10T13:53:44.369Z,-2.10
2019-02-10T13:56:13.505Z,-2.00
2019-02-10T13:58:42.391Z,-2.00
2019-02-10T14:01:11.434Z,-2.00
2019-02-10T14:03:40.719Z,-2.00
2019-02-10T14:06:09.991Z,-2.10
2019-02-10T14:08:39.628Z,-2.40
2019-02-10T14:11:08.386Z,-2.40
2019-02-10T14:13:37.273Z,-2.40
2019-02-10T14:16:06.036Z,-2.50
2019-02-10T14:18:35.150Z,-2.40
2019-02-10T14:21:05.342Z,-2.50
2019-02-10T14:23:35.395Z,-2.60
2019-02-10T14:26:04.673Z,-2.60
2019-02-10T14:28:34.311Z,-2.70
2019-02-10T14:31:03.777Z,-2.70
2019-02-10T14:33:38.755Z,-2.70
2019-02-10T14:36:03.560Z,-2.90
2019-02-10T14:38:36.259Z,-2.90
2019-02-10T14:41:03.506Z,-2.90
2019-02-10T14:43:32.983Z,-3.10
2019-02-10T14:46:02.761Z,-2.90
2019-02-10T14:48:31.919Z,-3.10
2019-02-10T14:51:00.564Z,-3.00
2019-02-10T14:53:30.028Z,-3.00
2019-02-10T14:55:58.689Z,-3.30
2019-02-10T14:58:27.344Z,-3.10
2019-02-10T15:00:55.993Z,-3.40
2019-02-10T15:03:25.442Z,-3.30
2019-02-10T15:05:54.906Z,-3.40
2019-02-10T15:08:25.643Z,-3.20
2019-02-10T15:10:55.038Z,-3.20
2019-02-10T15:13:24.511Z,-3.50
2019-02-10T15:15:53.847Z,-3.30
2019-02-10T15:18:23.330Z,-3.30
2019-02-10T15:20:52.960Z,-3.50
2019-02-10T15:23:22.429Z,-3.50
2019-02-10T15:25:52.061Z,-3.40
2019-02-10T15:28:21.150Z,-3.40
2019-02-10T15:30:50.654Z,-3.40
2019-02-10T15:33:19.965Z,-3.20
2019-02-10T15:35:49.525Z,-3.30
2019-02-10T15:38:20.334Z,-3.10
2019-02-10T15:40:50.250Z,-3.30
2019-02-10T15:43:19.019Z,-3.20
2019-02-10T15:45:48.095Z,-2.90
2019-02-10T15:48:17.199Z,-3.30
2019-02-10T15:50:46.718Z,-2.90
2019-02-10T15:53:15.920Z,-2.90
2019-02-10T15:55:45.042Z,-2.90
2019-02-10T15:58:14.361Z,-3.00
2019-02-10T16:00:43.715Z,-2.70
2019-02-10T16:03:12.736Z,-2.70
2019-02-10T16:05:42.282Z,-2.80
2019-02-10T16:08:11.794Z,-2.70
2019-02-10T16:10:40.994Z,-2.60
2019-02-10T16:13:10.541Z,-2.50
2019-02-10T16:15:39.681Z,-2.40
2019-02-10T16:18:09.086Z,-2.50
2019-02-10T16:20:38.574Z,-2.50
2019-02-10T16:23:08.092Z,-2.60
2019-02-10T16:25:37.280Z,-2.70
2019-02-10T16:28:06.532Z,-2.40
2019-02-10T16:30:35.655Z,-2.30
2019-02-10T16:33:04.677Z,-2.30
2019-02-10T16:35:33.799Z,-2.40
2019-02-10T16:38:02.967Z,-2.10
2019-02-10T16:40:32.078Z,-1.80
2019-02-10T16:43:01.495Z,-1.50
2019-02-10T16:45:30.803Z,-1.20
2019-02-10T16:47:59.942Z,-0.80
2019-02-10T16:50:29.279Z,0.00
2019-02-10T16:52:58.551Z,0.20
2019-02-10T16:55:28.865Z,0.40
2019-02-10T16:57:58.226Z,1.00
2019-02-10T17:00:27.486Z,1.70
2019-02-10T17:02:56.930Z,2.30
2019-02-10T17:05:25.742Z,3.00
2019-02-10T17:07:55.317Z,3.60
2019-02-10T17:10:24.249Z,4.20
2019-02-10T17:12:53.537Z,4.90
2019-02-10T17:15:22.502Z,5.00
2019-02-10T17:17:51.454Z,5.10
2019-02-10T17:20:20.749Z,4.40
2019-02-10T17:22:50.523Z,4.20
2019-02-10T17:25:28.044Z,4.40
2019-02-10T17:27:57.476Z,4.70
2019-02-10T17:30:26.833Z,5.00
2019-02-10T17:32:55.983Z,5.60
2019-02-10T17:35:25.240Z,5.90
2019-02-10T17:37:54.652Z,6.10
2019-02-10T17:40:32.700Z,5.60
2019-02-10T17:43:03.201Z,5.70
2019-02-10T17:45:32.329Z,5.50
2019-02-10T17:48:02.205Z,5.50
2019-02-10T17:50:31.397Z,4.70
2019-02-10T17:53:00.070Z,4.50
2019-02-10T17:55:28.729Z,4.90
2019-02-10T17:57:57.359Z,5.30
2019-02-10T18:00:28.211Z,5.80
2019-02-10T18:02:57.312Z,6.30
2019-02-10T18:05:27.341Z,6.60
2019-02-10T18:07:56.597Z,6.60
2019-02-10T18:10:25.777Z,6.50
2019-02-10T18:12:55.180Z,6.70
2019-02-10T18:15:28.727Z,6.60
2019-02-10T18:17:59.390Z,7.30
2019-02-10T18:20:38.976Z,7.40
2019-02-10T18:23:16.259Z,8.10
2019-02-10T18:26:04.755Z,7.60
2019-02-10T18:28:53.406Z,7.70
2019-02-10T18:31:28.106Z,8.20
2019-02-10T18:34:04.069Z,8.90
2019-02-10T18:36:34.265Z,8.90
2019-02-10T18:39:16.801Z,8.80
2019-02-10T18:41:49.825Z,8.50
2019-02-10T18:44:20.752Z,8.90
2019-02-10T18:46:59.939Z,9.10
2019-02-10T18:49:33.964Z,9.40
2019-02-10T18:52:08.262Z,9.30
2019-02-10T18:54:44.886Z,9.80
2019-02-10T18:57:18.366Z,9.40
2019-02-10T18:59:53.280Z,9.60
2019-02-10T19:02:40.943Z,9.30
2019-02-10T19:05:30.074Z,9.20
2019-02-10T19:08:12.991Z,9.60
2019-02-10T19:10:53.757Z,9.70
2019-02-10T19:13:24.609Z,9.60
2019-02-10T19:15:55.398Z,9.30
2019-02-10T19:18:38.118Z,9.20
2019-02-10T19:21:20.334Z,9.30
2019-02-10T19:24:02.198Z,9.10
2019-02-10T19:26:32.526Z,9.00
2019-02-10T19:29:14.938Z,8.60
2019-02-10T19:31:55.037Z,8.40
2019-02-10T19:34:33.298Z,8.90
2019-02-10T19:37:23.575Z,9.20
2019-02-10T19:40:09.228Z,9.40
2019-02-10T19:42:45.887Z,9.30
2019-02-10T19:45:33.196Z,9.00
2019-02-10T19:48:22.365Z,8.60
2019-02-10T19:50:55.841Z,8.40
2019-02-10T19:53:26.743Z,8.50
2019-02-10T19:56:06.159Z,8.60
2019-02-10T19:58:39.658Z,8.80
2019-02-10T20:01:13.830Z,9.00
2019-02-10T20:04:00.775Z,9.20
2019-02-10T20:06:31.497Z,9.80
2019-02-10T20:09:08.255Z,10.10
2019-02-10T20:11:39.111Z,10.00
2019-02-10T20:14:12.223Z,9.50
2019-02-10T20:16:43.226Z,9.20
2019-02-10T20:19:14.948Z,9.00
2019-02-10T20:22:02.611Z,8.90
2019-02-10T20:24:36.272Z,8.30
2019-02-10T20:27:13.266Z,7.90
2019-02-10T20:29:50.218Z,7.20
2019-02-10T20:32:21.209Z,6.70
2019-02-10T20:35:04.152Z,6.30
2019-02-10T20:37:43.836Z,6.20
2019-02-10T20:40:14.776Z,5.80
2019-02-10T20:42:45.112Z,5.70
2019-02-10T20:45:16.014Z,6.00
2019-02-10T20:47:48.834Z,5.50
2019-02-10T20:50:35.986Z,5.30
2019-02-10T20:53:24.333Z,5.00
2019-02-10T20:56:00.310Z,5.10
2019-02-10T20:58:44.341Z,5.00
2019-02-10T21:01:20.985Z,5.10
2019-02-10T21:03:52.058Z,4.70
2019-02-10T21:06:23.471Z,4.50
2019-02-10T21:09:03.143Z,4.50
2019-02-10T21:11:45.851Z,4.60
2019-02-10T21:14:25.591Z,4.40
2019-02-10T21:17:05.662Z,4.30
2019-02-10T21:19:39.125Z,4.20
2019-02-10T21:22:12.704Z,4.40
2019-02-10T21:25:00.272Z,4.20
2019-02-10T21:27:31.437Z,4.10
2019-02-10T21:30:02.162Z,4.20
2019-02-10T21:32:35.790Z,4.20
2019-02-10T21:35:09.605Z,4.10
2019-02-10T21:37:46.073Z,4.10
2019-02-10T21:40:17.017Z,4.10
2019-02-10T21:42:47.784Z,4.10
2019-02-10T21:45:36.206Z,3.50
2019-02-10T21:48:07.566Z,3.60
2019-02-10T21:50:36.744Z,3.60
2019-02-10T21:53:06.116Z,3.70
2019-02-10T21:55:35.465Z,3.60
2019-02-10T21:58:04.724Z,4.00
2019-02-10T22:00:34.074Z,3.80
2019-02-10T22:03:04.189Z,4.10
2019-02-10T22:05:33.247Z,3.90
2019-02-10T22:08:02.394Z,4.30
2019-02-10T22:10:31.552Z,4.20
2019-02-10T22:13:00.849Z,4.30
2019-02-10T22:15:29.527Z,4.40
2019-02-10T22:17:58.191Z,4.50
2019-02-10T22:20:26.790Z,4.50
2019-02-10T22:22:55.376Z,4.80
2019-02-10T22:25:24.341Z,4.40
2019-02-10T22:27:53.429Z,4.20
2019-02-10T22:30:23.318Z,4.70
2019-02-10T22:32:52.350Z,4.70
2019-02-10T22:35:22.498Z,4.10
2019-02-10T22:37:51.645Z,4.40
2019-02-10T22:40:21.011Z,4.00
2019-02-10T22:42:50.584Z,4.10
2019-02-10T22:45:19.826Z,3.60
2019-02-10T22:47:49.824Z,3.50
2019-02-10T22:50:19.174Z,3.80
2019-02-10T22:52:49.183Z,3.60
2019-02-10T22:55:18.804Z,3.30
2019-02-10T22:57:47.818Z,3.50
2019-02-10T23:00:21.202Z,3.00
2019-02-10T23:02:50.230Z,3.00
2019-02-10T23:05:18.901Z,3.00
2019-02-10T23:07:47.545Z,3.00
2019-02-10T23:10:16.649Z,2.80
2019-02-10T23:12:53.436Z,2.70
2019-02-10T23:15:16.657Z,2.90
2019-02-10T23:17:46.712Z,2.80
2019-02-10T23:20:15.920Z,2.70
2019-02-10T23:22:46.414Z,2.60
2019-02-10T23:25:16.571Z,2.80
2019-02-10T23:27:45.977Z,2.80
2019-02-10T23:30:15.416Z,2.70
2019-02-10T23:32:44.772Z,2.50
2019-02-10T23:35:13.872Z,2.50
2019-02-10T23:37:43.174Z,2.50
2019-02-10T23:40:12.340Z,2.40
2019-02-10T23:42:41.711Z,2.30
2019-02-10T23:45:11.499Z,2.30
2019-02-10T23:47:40.177Z,2.40
2019-02-10T23:50:08.890Z,2.30
2019-02-10T23:52:38.591Z,2.50
2019-02-10T23:55:08.623Z,2.50
2019-02-10T23:57:37.895Z,2.50
